Mason City, Nebraska
Current Conditions -  °F | °C
As of 12:53 PM on Thursday 30 Oct 2014 (Local Time) from KBBW Reporting Station
Clear Clear  
Wind Chill: 61°   Ceiling: Unl
Heat Index: 61°   Visibility: 10mi
Dew Point: 35°   Wind: 25mph
Humidity: 38%   Direction: 350°N
Pressure: 30.22"   Gusts: 33mph
Location:  41.22°N, 99.3°W
Report Text: KBBW 301753Z AUTO 35022G29KT 10SM CLR 16/02 A3022 RMK AO2 PK WND 32032/1740 SLP232 T01610017 10161 20067 51010
Loading
Personal Weather Stations






























Interactive Weather Map
Tropical Storm Tracking
New forecast layout! Learn more

10-Day Weather Forecast

Advertisements
Track Severe Weather on mobile